createdAt,value
2019-04-12T00:01:26.054Z,2.20
2019-04-12T00:02:42.151Z,1.77
2019-04-12T00:03:58.703Z,2.30
2019-04-12T00:05:16.369Z,2.10
2019-04-12T00:06:33.153Z,1.90
2019-04-12T00:07:49.310Z,3.00
2019-04-12T00:09:06.029Z,2.30
2019-04-12T00:10:22.454Z,1.83
2019-04-12T00:11:38.402Z,2.53
2019-04-12T00:12:54.453Z,2.00
2019-04-12T00:14:10.173Z,2.20
2019-04-12T00:15:26.107Z,2.13
2019-04-12T00:16:43.984Z,2.17
2019-04-12T00:18:00.141Z,1.80
2019-04-12T00:19:16.036Z,1.93
2019-04-12T00:20:32.208Z,2.50
2019-04-12T00:21:48.379Z,1.80
2019-04-12T00:23:04.700Z,2.30
2019-04-12T00:24:20.925Z,1.60
2019-04-12T00:25:37.174Z,1.87
2019-04-12T00:26:53.164Z,2.03
2019-04-12T00:28:09.092Z,2.13
2019-04-12T00:29:25.248Z,2.20
2019-04-12T00:30:41.516Z,1.80
2019-04-12T00:31:57.428Z,2.10
2019-04-12T00:33:13.493Z,1.70
2019-04-12T00:34:29.481Z,1.93
2019-04-12T00:35:45.465Z,1.83
2019-04-12T00:37:01.158Z,2.00
2019-04-12T00:38:17.065Z,2.40
2019-04-12T00:39:33.027Z,1.97
2019-04-12T00:40:48.938Z,2.00
2019-04-12T00:42:04.952Z,2.23
2019-04-12T00:43:21.190Z,2.30
2019-04-12T00:44:39.899Z,1.70
2019-04-12T00:45:55.502Z,2.07
2019-04-12T00:47:14.683Z,1.90
2019-04-12T00:48:30.788Z,1.90
2019-04-12T00:49:47.096Z,1.93
2019-04-12T00:51:04.348Z,2.03
2019-04-12T00:52:20.165Z,2.20
2019-04-12T00:53:36.156Z,2.10
2019-04-12T00:54:51.999Z,1.80
2019-04-12T00:56:07.900Z,2.00
2019-04-12T00:57:23.974Z,2.10
2019-04-12T00:58:39.859Z,2.37
2019-04-12T00:59:55.674Z,2.37
2019-04-12T01:01:30.478Z,2.30
2019-04-12T01:02:49.153Z,2.00
2019-04-12T01:04:07.921Z,2.10
2019-04-12T01:05:29.020Z,1.97
2019-04-12T01:06:46.006Z,1.97
2019-04-12T01:08:06.214Z,2.00
2019-04-12T01:09:22.969Z,2.20
2019-04-12T01:10:38.934Z,2.20
2019-04-12T01:11:55.416Z,2.20
2019-04-12T01:13:12.423Z,1.87
2019-04-12T01:14:28.513Z,2.30
2019-04-12T01:15:44.333Z,2.00
2019-04-12T01:17:00.627Z,2.00
2019-04-12T01:18:17.051Z,1.90
2019-04-12T01:19:33.955Z,1.83
2019-04-12T01:20:50.423Z,2.10
2019-04-12T01:22:08.871Z,1.90
2019-04-12T01:23:24.356Z,1.63
2019-04-12T01:24:41.761Z,2.23
2019-04-12T01:25:57.858Z,1.73
2019-04-12T01:27:16.575Z,1.80
2019-04-12T01:28:32.163Z,2.13
2019-04-12T01:29:48.525Z,2.10
2019-04-12T01:31:04.885Z,1.93
2019-04-12T01:32:20.918Z,2.53
2019-04-12T01:33:36.813Z,2.30
2019-04-12T01:34:52.926Z,1.90
2019-04-12T01:36:08.928Z,2.10
2019-04-12T01:37:24.869Z,1.87
2019-04-12T01:38:40.854Z,1.90
2019-04-12T01:39:56.778Z,1.97
2019-04-12T01:41:12.937Z,2.33
2019-04-12T01:42:29.103Z,2.37
2019-04-12T01:43:45.157Z,2.07
2019-04-12T01:45:01.195Z,2.33
2019-04-12T01:46:16.953Z,1.93
2019-04-12T01:47:32.946Z,2.50
2019-04-12T01:48:49.116Z,1.80
2019-04-12T01:50:05.296Z,2.30
2019-04-12T01:51:21.259Z,2.13
2019-04-12T01:52:37.612Z,2.50
2019-04-12T01:53:53.868Z,1.97
2019-04-12T01:55:10.127Z,2.27
2019-04-12T01:56:26.025Z,2.17
2019-04-12T01:57:41.910Z,2.03
2019-04-12T01:58:58.140Z,2.30
2019-04-12T02:00:13.981Z,2.47
2019-04-12T02:01:30.285Z,1.90
2019-04-12T02:02:46.017Z,2.20
2019-04-12T02:04:01.699Z,2.10
2019-04-12T02:05:19.290Z,2.30
2019-04-12T02:06:35.167Z,2.17
2019-04-12T02:07:51.588Z,2.17
2019-04-12T02:09:07.869Z,2.00
2019-04-12T02:10:23.727Z,2.50
2019-04-12T02:11:40.078Z,2.37
2019-04-12T02:12:56.458Z,2.27
2019-04-12T02:14:12.561Z,2.37
2019-04-12T02:15:28.948Z,2.23
2019-04-12T02:16:44.770Z,2.17
2019-04-12T02:18:00.705Z,2.60
2019-04-12T02:19:16.928Z,2.23
2019-04-12T02:20:33.025Z,2.10
2019-04-12T02:21:49.218Z,2.20
2019-04-12T02:23:05.148Z,2.50
2019-04-12T02:24:21.187Z,2.10
2019-04-12T02:25:37.408Z,2.33
2019-04-12T02:26:53.272Z,2.77
2019-04-12T02:28:09.523Z,2.30
2019-04-12T02:29:14.481Z,2.00
2019-04-12T02:32:40.989Z,2.20
2019-04-12T02:34:04.556Z,2.10
2019-04-12T02:35:48.341Z,2.20
2019-04-12T02:37:03.978Z,1.73
2019-04-12T02:38:21.694Z,2.27
2019-04-12T02:39:37.724Z,2.43
2019-04-12T02:40:53.725Z,2.50
2019-04-12T02:42:10.431Z,2.40
2019-04-12T02:43:27.004Z,2.27
2019-04-12T02:44:43.055Z,2.50
2019-04-12T02:46:02.620Z,2.40
2019-04-12T02:47:22.749Z,2.47
2019-04-12T02:48:57.382Z,2.60
2019-04-12T02:50:32.092Z,2.40
2019-04-12T02:52:13.257Z,2.47
2019-04-12T02:57:07.316Z,2.20
2019-04-12T03:00:11.188Z,2.50
2019-04-12T03:01:26.944Z,2.33
2019-04-12T03:02:43.286Z,2.30
2019-04-12T03:03:59.296Z,2.10
2019-04-12T03:05:15.053Z,2.23
2019-04-12T03:06:30.885Z,2.30
2019-04-12T03:07:46.916Z,2.33
2019-04-12T03:09:03.404Z,2.40
2019-04-12T03:10:19.044Z,2.20
2019-04-12T03:11:35.257Z,2.40
2019-04-12T03:12:51.558Z,2.60
2019-04-12T03:14:07.701Z,2.37
2019-04-12T03:15:23.576Z,2.37
2019-04-12T03:16:39.760Z,2.27
2019-04-12T03:17:56.033Z,2.30
2019-04-12T03:19:12.280Z,2.40
2019-04-12T03:20:28.382Z,2.40
2019-04-12T03:21:44.303Z,2.27
2019-04-12T03:23:00.672Z,2.57
2019-04-12T03:24:16.572Z,2.10
2019-04-12T03:25:32.776Z,2.20
2019-04-12T03:26:49.275Z,2.67
2019-04-12T03:28:05.242Z,2.77
2019-04-12T03:29:21.250Z,2.17
2019-04-12T03:32:23.925Z,2.20
2019-04-12T03:33:39.800Z,2.53
2019-04-12T03:34:56.014Z,2.90
2019-04-12T03:36:12.202Z,2.57
2019-04-12T03:37:27.968Z,2.10
2019-04-12T03:38:43.923Z,2.53
2019-04-12T03:39:59.787Z,2.47
2019-04-12T03:41:15.986Z,2.47
2019-04-12T03:42:32.109Z,2.43
2019-04-12T03:43:48.162Z,2.77
2019-04-12T03:45:04.399Z,2.63
2019-04-12T03:46:20.656Z,2.17
2019-04-12T03:47:36.649Z,2.60
2019-04-12T03:48:52.724Z,2.33
2019-04-12T03:50:08.441Z,2.40
2019-04-12T03:51:24.275Z,2.43
2019-04-12T03:52:40.158Z,2.47
2019-04-12T03:53:56.059Z,2.43
2019-04-12T03:55:12.468Z,2.80
2019-04-12T03:56:28.896Z,2.40
2019-04-12T03:57:45.216Z,2.20
2019-04-12T03:59:20.159Z,2.73
2019-04-12T04:00:37.161Z,2.40
2019-04-12T04:01:56.380Z,2.87
2019-04-12T04:03:13.206Z,2.50
2019-04-12T04:04:29.103Z,2.70
2019-04-12T04:05:44.996Z,2.80
2019-04-12T04:07:00.859Z,3.00
2019-04-12T04:08:16.699Z,2.60
2019-04-12T04:09:32.644Z,2.70
2019-04-12T04:10:48.696Z,2.67
2019-04-12T04:12:04.763Z,2.90
2019-04-12T04:13:20.628Z,2.80
2019-04-12T04:14:36.637Z,2.83
2019-04-12T04:15:53.986Z,3.07
2019-04-12T04:17:28.621Z,2.60
2019-04-12T04:18:44.214Z,2.47
2019-04-12T04:20:20.453Z,3.00
2019-04-12T04:21:39.920Z,2.80
2019-04-12T04:24:32.469Z,3.00
2019-04-12T04:27:53.073Z,2.67
2019-04-12T04:29:28.077Z,2.77
2019-04-12T04:30:48.742Z,2.40
2019-04-12T04:32:29.668Z,3.13
2019-04-12T04:33:45.963Z,2.50
2019-04-12T04:35:02.081Z,2.70
2019-04-12T04:36:18.077Z,2.80
2019-04-12T04:37:34.069Z,2.57
2019-04-12T04:38:49.914Z,2.97
2019-04-12T04:40:05.806Z,2.50
2019-04-12T04:41:25.393Z,2.47
2019-04-12T04:42:41.695Z,2.37
2019-04-12T04:43:57.582Z,2.90
2019-04-12T04:45:13.947Z,2.67
2019-04-12T04:46:29.828Z,3.07
2019-04-12T04:47:45.782Z,2.70
2019-04-12T04:49:01.737Z,2.60
2019-04-12T04:50:17.732Z,2.87
2019-04-12T04:51:33.590Z,2.63
2019-04-12T04:52:49.553Z,2.63
2019-04-12T04:54:05.408Z,2.77
2019-04-12T04:55:21.342Z,2.93
2019-04-12T04:56:37.247Z,3.27
2019-04-12T04:57:55.922Z,2.87
2019-04-12T04:59:13.264Z,3.40
2019-04-12T05:00:28.876Z,2.50
2019-04-12T05:01:44.746Z,2.70
2019-04-12T05:03:00.671Z,2.50
2019-04-12T05:04:16.400Z,2.73
2019-04-12T05:05:32.473Z,2.93
2019-04-12T05:06:48.607Z,2.80
2019-04-12T05:08:04.579Z,3.10
2019-04-12T05:09:20.707Z,2.83
2019-04-12T05:10:36.699Z,3.43
2019-04-12T05:11:52.726Z,2.90
2019-04-12T05:13:08.891Z,3.00
2019-04-12T05:14:24.883Z,3.27
2019-04-12T05:15:40.608Z,3.03
2019-04-12T05:16:56.866Z,2.83
2019-04-12T05:18:13.061Z,2.57
2019-04-12T05:19:29.830Z,2.70
2019-04-12T05:20:46.172Z,2.77
2019-04-12T05:22:02.177Z,3.00
2019-04-12T05:23:18.062Z,3.37
2019-04-12T05:24:34.016Z,2.83
2019-04-12T05:25:49.873Z,3.33
2019-04-12T05:27:05.938Z,2.73
2019-04-12T05:28:10.344Z,3.23
2019-04-12T05:29:34.141Z,3.03
2019-04-12T05:30:57.617Z,3.30
2019-04-12T05:32:21.180Z,2.93
2019-04-12T05:33:44.636Z,2.80
2019-04-12T05:35:08.146Z,2.60
2019-04-12T05:36:31.726Z,3.50
2019-04-12T05:37:55.205Z,2.93
2019-04-12T05:39:18.645Z,3.27
2019-04-12T05:40:34.434Z,3.20
2019-04-12T05:41:50.935Z,3.20
2019-04-12T05:43:06.947Z,3.30
2019-04-12T05:44:22.758Z,2.97
2019-04-12T05:45:57.938Z,3.13
2019-04-12T05:49:25.006Z,3.20
2019-04-12T05:50:42.661Z,3.03
2019-04-12T05:51:59.263Z,3.40
2019-04-12T05:53:15.605Z,3.47
2019-04-12T05:54:32.777Z,3.13
2019-04-12T05:55:54.639Z,3.20
2019-04-12T05:57:12.865Z,3.47
2019-04-12T05:58:53.376Z,2.83
2019-04-12T06:00:14.292Z,3.60
2019-04-12T06:01:50.147Z,3.60
2019-04-12T06:03:06.147Z,3.77
2019-04-12T06:04:22.078Z,3.53
2019-04-12T06:05:38.653Z,3.30
2019-04-12T06:06:58.548Z,3.50
2019-04-12T06:08:14.614Z,3.20
2019-04-12T06:09:30.498Z,2.83
2019-04-12T06:10:46.542Z,3.37
2019-04-12T06:12:02.889Z,3.30
2019-04-12T06:13:18.489Z,3.47
2019-04-12T06:14:34.692Z,3.50
2019-04-12T06:15:50.843Z,3.03
2019-04-12T06:17:06.802Z,3.37
2019-04-12T06:18:22.671Z,3.20
2019-04-12T06:19:38.647Z,3.67
2019-04-12T06:21:16.269Z,3.10
2019-04-12T06:22:33.302Z,3.07
2019-04-12T06:23:49.721Z,3.10
2019-04-12T06:27:09.367Z,3.10
2019-04-12T06:28:17.495Z,3.53
2019-04-12T06:29:33.840Z,2.60
2019-04-12T06:30:51.453Z,2.97
2019-04-12T06:32:07.754Z,3.20
2019-04-12T06:33:23.906Z,3.07
2019-04-12T06:34:39.672Z,3.17
2019-04-12T06:35:56.083Z,3.37
2019-04-12T06:37:12.689Z,3.77
2019-04-12T06:38:29.110Z,3.77
2019-04-12T06:39:45.450Z,3.17
2019-04-12T06:41:01.341Z,3.70
2019-04-12T06:42:17.515Z,3.23
2019-04-12T06:43:33.660Z,3.43
2019-04-12T06:44:49.761Z,3.50
2019-04-12T06:46:07.951Z,3.83
2019-04-12T06:47:26.012Z,3.50
2019-04-12T06:48:42.644Z,3.70
2019-04-12T06:49:59.063Z,3.43
2019-04-12T06:51:14.850Z,4.20
2019-04-12T06:52:30.641Z,3.70
2019-04-12T06:53:46.800Z,3.40
2019-04-12T06:55:04.642Z,3.87
2019-04-12T06:58:08.762Z,3.67
2019-04-12T06:59:24.935Z,3.50
2019-04-12T07:02:26.702Z,3.80
2019-04-12T07:03:56.286Z,3.80
2019-04-12T07:05:06.665Z,4.27
2019-04-12T07:06:22.703Z,3.33
2019-04-12T07:07:38.817Z,3.87
2019-04-12T07:08:54.800Z,3.50
2019-04-12T07:10:11.030Z,3.67
2019-04-12T07:11:27.080Z,3.83
2019-04-12T07:12:43.440Z,3.67
2019-04-12T07:13:59.331Z,4.30
2019-04-12T07:15:15.173Z,3.87
2019-04-12T07:16:30.986Z,4.60
2019-04-12T07:17:47.065Z,3.87
2019-04-12T07:19:03.074Z,4.13
2019-04-12T07:20:19.004Z,4.00
2019-04-12T07:21:34.958Z,4.53
2019-04-12T07:22:51.093Z,4.27
2019-04-12T07:24:07.054Z,4.30
2019-04-12T07:25:23.049Z,4.80
2019-04-12T07:26:39.168Z,4.37
2019-04-12T07:27:55.048Z,4.23
2019-04-12T07:29:10.717Z,4.20
2019-04-12T07:30:26.670Z,4.53
2019-04-12T07:31:42.483Z,4.37
2019-04-12T07:32:58.664Z,4.33
2019-04-12T07:34:14.487Z,4.23
2019-04-12T07:35:30.263Z,4.47
2019-04-12T07:36:47.516Z,4.50
2019-04-12T07:38:03.733Z,4.37
2019-04-12T07:39:19.437Z,4.53
2019-04-12T07:40:35.046Z,4.40
2019-04-12T07:41:51.386Z,4.07
2019-04-12T07:43:07.292Z,4.90
2019-04-12T07:44:25.030Z,4.80
2019-04-12T07:45:40.750Z,5.33
2019-04-12T07:46:57.193Z,4.80
2019-04-12T07:48:13.052Z,4.20
2019-04-12T07:49:29.270Z,4.47
2019-04-12T07:52:29.215Z,4.30
2019-04-12T07:55:21.542Z,4.20
2019-04-12T07:56:37.345Z,4.53
2019-04-12T07:58:10.252Z,5.20
2019-04-12T07:59:27.681Z,4.67
2019-04-12T08:01:05.831Z,5.03
2019-04-12T08:02:43.885Z,5.00
2019-04-12T08:04:19.096Z,4.87
2019-04-12T08:05:39.332Z,4.80
2019-04-12T08:08:25.886Z,5.03
2019-04-12T08:09:41.841Z,4.27
2019-04-12T08:10:59.984Z,4.80
2019-04-12T08:12:16.568Z,4.30
2019-04-12T08:13:32.645Z,4.50
2019-04-12T08:14:48.578Z,4.70
2019-04-12T08:16:04.739Z,4.60
2019-04-12T08:17:20.813Z,4.60
2019-04-12T08:18:36.686Z,5.20
2019-04-12T08:19:52.572Z,4.80
2019-04-12T08:21:08.536Z,5.50
2019-04-12T08:22:24.788Z,4.00
2019-04-12T08:23:41.135Z,4.20
2019-04-12T08:24:57.081Z,5.00
2019-04-12T08:26:12.996Z,4.03
2019-04-12T08:27:28.843Z,4.60
2019-04-12T08:28:45.120Z,4.00
2019-04-12T08:30:00.984Z,4.23
2019-04-12T08:31:17.011Z,5.10
2019-04-12T08:32:32.878Z,4.87
2019-04-12T08:33:48.909Z,4.60
2019-04-12T08:35:05.057Z,4.57
2019-04-12T08:36:21.752Z,3.80
2019-04-12T08:37:37.739Z,3.80
2019-04-12T08:38:54.041Z,4.10
2019-04-12T08:40:10.075Z,4.23
2019-04-12T08:41:26.289Z,4.70
2019-04-12T08:42:42.300Z,4.03
2019-04-12T08:43:58.230Z,4.70
2019-04-12T08:45:14.404Z,4.50
2019-04-12T08:46:30.345Z,4.60
2019-04-12T08:47:46.209Z,4.83
2019-04-12T08:49:02.267Z,3.60
2019-04-12T08:50:18.702Z,3.40
2019-04-12T08:51:34.446Z,3.67
2019-04-12T08:52:50.700Z,3.53
2019-04-12T08:54:06.824Z,3.53
2019-04-12T08:55:23.031Z,3.60
2019-04-12T08:56:39.068Z,3.90
2019-04-12T08:57:55.066Z,3.20
2019-04-12T08:59:11.292Z,3.53
2019-04-12T09:00:27.162Z,4.00
2019-04-12T09:01:43.276Z,2.90
2019-04-12T09:02:59.618Z,2.73
2019-04-12T09:04:15.258Z,3.10
2019-04-12T09:05:32.915Z,3.47
2019-04-12T09:06:49.796Z,3.13
2019-04-12T09:08:05.792Z,2.87
2019-04-12T09:09:29.191Z,3.07
2019-04-12T09:10:52.662Z,3.00
2019-04-12T09:12:16.196Z,3.73
2019-04-12T09:13:39.727Z,3.17
2019-04-12T09:15:03.349Z,3.50
2019-04-12T09:16:26.734Z,2.83
2019-04-12T09:17:50.354Z,2.90
2019-04-12T09:19:32.852Z,3.50
2019-04-12T09:21:15.319Z,3.20
2019-04-12T09:22:57.807Z,3.53
2019-04-12T09:24:41.758Z,3.53
2019-04-12T09:27:49.318Z,3.43
2019-04-12T09:29:27.161Z,3.87
2019-04-12T09:34:16.304Z,3.67
2019-04-12T09:35:29.759Z,3.63
2019-04-12T09:36:53.235Z,3.17
2019-04-12T09:39:45.790Z,3.23
2019-04-12T09:41:09.216Z,2.70
2019-04-12T09:44:16.793Z,3.07
2019-04-12T09:47:14.618Z,2.90
2019-04-12T09:48:37.998Z,2.90
2019-04-12T09:51:30.389Z,3.10
2019-04-12T09:54:24.751Z,2.27
2019-04-12T09:57:32.391Z,2.63
2019-04-12T10:00:44.298Z,2.20
2019-04-12T10:06:48.736Z,2.70
2019-04-12T10:08:12.227Z,2.67
2019-04-12T10:09:35.706Z,2.37
2019-04-12T10:12:42.418Z,2.57
2019-04-12T10:15:49.989Z,3.10
2019-04-12T10:18:57.572Z,2.50
2019-04-12T10:22:03.511Z,3.00
2019-04-12T10:23:26.981Z,2.73
2019-04-12T10:25:10.757Z,2.90
2019-04-12T10:28:02.967Z,2.47
2019-04-12T10:31:08.862Z,2.40
2019-04-12T10:35:35.327Z,2.93
2019-04-12T10:36:58.750Z,2.60
2019-04-12T10:38:22.265Z,4.10
2019-04-12T10:39:38.609Z,3.00
2019-04-12T10:40:54.443Z,2.90
2019-04-12T10:42:10.456Z,2.57
2019-04-12T10:43:26.558Z,3.00
2019-04-12T10:46:22.044Z,3.33
2019-04-12T10:47:43.661Z,2.47
2019-04-12T10:53:55.140Z,2.10
2019-04-12T10:55:12.696Z,2.57
2019-04-12T10:56:28.584Z,2.40
2019-04-12T10:57:44.683Z,2.30
2019-04-12T10:59:03.276Z,2.43
2019-04-12T11:00:20.787Z,2.60
2019-04-12T11:01:36.988Z,2.40
2019-04-12T11:02:52.869Z,2.40
2019-04-12T11:04:08.806Z,2.53
2019-04-12T11:05:24.570Z,2.60
2019-04-12T11:06:40.940Z,2.73
2019-04-12T11:07:56.616Z,3.30
2019-04-12T11:09:12.851Z,3.20
2019-04-12T11:10:29.196Z,3.30
2019-04-12T11:11:45.557Z,2.70
2019-04-12T11:13:01.257Z,3.00
2019-04-12T11:14:17.487Z,2.77
2019-04-12T11:15:33.965Z,2.70
2019-04-12T11:16:50.799Z,3.13
2019-04-12T11:18:06.515Z,2.77
2019-04-12T11:20:41.670Z,3.23
2019-04-12T11:21:57.475Z,2.93
2019-04-12T11:23:13.617Z,2.77
2019-04-12T11:24:29.725Z,2.90
2019-04-12T11:25:45.991Z,2.60
2019-04-12T11:27:02.643Z,3.10
2019-04-12T11:28:18.479Z,2.47
2019-04-12T11:29:34.954Z,2.90
2019-04-12T11:30:51.258Z,2.90
2019-04-12T11:32:07.920Z,3.03
2019-04-12T11:33:24.032Z,2.87
2019-04-12T11:34:40.205Z,2.97
2019-04-12T11:35:56.162Z,3.17
2019-04-12T11:37:12.119Z,3.00
2019-04-12T11:38:27.870Z,2.60
2019-04-12T11:39:44.214Z,2.67
2019-04-12T11:41:00.066Z,2.87
2019-04-12T11:42:16.125Z,3.03
2019-04-12T11:43:32.032Z,3.00
2019-04-12T11:44:48.014Z,2.63
2019-04-12T11:46:04.001Z,2.83
2019-04-12T11:47:20.102Z,3.00
2019-04-12T11:48:36.138Z,2.57
2019-04-12T11:49:52.130Z,2.53
2019-04-12T11:51:08.448Z,2.27
2019-04-12T11:52:24.452Z,2.80
2019-04-12T11:53:40.335Z,3.10
2019-04-12T11:54:56.105Z,2.90
2019-04-12T11:56:12.216Z,2.80
2019-04-12T11:57:28.179Z,2.60
2019-04-12T11:58:48.358Z,2.60
2019-04-12T12:00:04.512Z,2.70
2019-04-12T12:01:39.868Z,2.57
2019-04-12T12:03:01.553Z,2.67
2019-04-12T12:04:35.955Z,2.77
2019-04-12T12:07:50.214Z,2.30
2019-04-12T12:09:11.046Z,2.90
2019-04-12T12:10:45.925Z,2.67
2019-04-12T12:14:09.214Z,2.97
2019-04-12T12:15:44.284Z,3.20
2019-04-12T12:17:04.926Z,2.67
2019-04-12T12:18:24.412Z,2.70
2019-04-12T12:19:28.792Z,3.03
2019-04-12T12:21:11.177Z,2.87
2019-04-12T12:22:34.703Z,3.13
2019-04-12T12:23:58.323Z,2.67
2019-04-12T12:27:04.584Z,2.80
2019-04-12T12:28:28.176Z,2.60
2019-04-12T12:29:51.683Z,3.10
2019-04-12T12:32:45.513Z,2.50
2019-04-12T12:34:08.937Z,2.73
2019-04-12T12:35:33.871Z,2.53
2019-04-12T12:36:57.527Z,2.40
2019-04-12T12:38:21.140Z,2.53
2019-04-12T12:39:37.649Z,2.80
2019-04-12T12:40:53.706Z,2.97
2019-04-12T12:42:09.784Z,2.40
2019-04-12T12:43:25.909Z,2.90
2019-04-12T12:44:41.866Z,2.83
2019-04-12T12:45:57.992Z,2.20
2019-04-12T12:47:16.727Z,3.13
2019-04-12T12:48:33.684Z,2.63
2019-04-12T12:49:50.056Z,2.90
2019-04-12T12:51:06.040Z,2.73
2019-04-12T12:52:22.132Z,2.87
2019-04-12T12:53:37.907Z,2.67
2019-04-12T12:54:53.806Z,2.90
2019-04-12T12:56:09.732Z,2.70
2019-04-12T12:57:25.495Z,2.57
2019-04-12T12:58:41.887Z,2.63
2019-04-12T12:59:58.258Z,2.77
2019-04-12T13:01:14.586Z,2.70
2019-04-12T13:02:30.543Z,2.73
2019-04-12T13:03:46.937Z,2.90
2019-04-12T13:05:03.031Z,3.27
2019-04-12T13:06:19.112Z,2.40
2019-04-12T13:07:35.218Z,2.77
2019-04-12T13:08:51.132Z,2.83
2019-04-12T13:10:07.191Z,3.27
2019-04-12T13:11:23.218Z,3.00
2019-04-12T13:12:39.622Z,3.13
2019-04-12T13:13:55.500Z,3.07
2019-04-12T13:15:11.501Z,3.30
2019-04-12T13:16:27.469Z,3.07
2019-04-12T13:17:43.650Z,3.37
2019-04-12T13:18:59.758Z,2.73
2019-04-12T13:20:15.746Z,3.13
2019-04-12T13:21:31.622Z,3.50
2019-04-12T13:22:47.439Z,3.43
2019-04-12T13:24:03.426Z,3.10
2019-04-12T13:25:19.585Z,3.40
2019-04-12T13:26:35.414Z,3.43
2019-04-12T13:27:51.157Z,3.27
2019-04-12T13:29:07.489Z,3.23
2019-04-12T13:30:48.564Z,3.47
2019-04-12T13:33:52.122Z,3.87
2019-04-12T13:41:58.349Z,3.10
2019-04-12T13:43:17.188Z,3.07
2019-04-12T13:44:33.028Z,3.37
2019-04-12T13:45:49.106Z,3.03
2019-04-12T13:47:05.083Z,2.87
2019-04-12T13:48:21.677Z,3.60
2019-04-12T13:49:38.072Z,3.20
2019-04-12T13:50:54.615Z,2.77
2019-04-12T13:52:11.164Z,2.97
2019-04-12T13:53:27.054Z,3.17
2019-04-12T13:54:43.026Z,3.03
2019-04-12T13:55:59.108Z,3.17
2019-04-12T13:57:15.269Z,3.30
2019-04-12T13:58:31.733Z,2.70
2019-04-12T13:59:47.695Z,3.50
2019-04-12T14:01:03.994Z,3.33
2019-04-12T14:02:19.842Z,2.87
2019-04-12T14:03:36.048Z,3.37
2019-04-12T14:04:52.083Z,3.00
2019-04-12T14:06:08.007Z,3.00
2019-04-12T14:07:23.858Z,2.80
2019-04-12T14:08:39.939Z,3.20
2019-04-12T14:09:55.860Z,3.33
2019-04-12T14:11:12.099Z,2.90
2019-04-12T14:12:27.918Z,3.23
2019-04-12T14:13:43.653Z,2.87
2019-04-12T14:14:59.842Z,3.13
2019-04-12T14:16:15.590Z,3.03
2019-04-12T14:17:31.901Z,2.93
2019-04-12T14:18:47.803Z,3.40
2019-04-12T14:20:03.772Z,2.90
2019-04-12T14:21:19.733Z,3.37
2019-04-12T14:22:35.788Z,3.13
2019-04-12T14:23:51.798Z,3.20
2019-04-12T14:25:07.976Z,3.87
2019-04-12T14:26:24.038Z,2.90
2019-04-12T14:27:40.215Z,3.57
2019-04-12T14:28:56.396Z,3.93
2019-04-12T14:31:53.949Z,3.93
2019-04-12T14:33:29.373Z,3.60
2019-04-12T14:34:51.578Z,3.70
2019-04-12T14:36:13.024Z,3.80
2019-04-12T14:37:34.283Z,3.70
2019-04-12T14:38:50.746Z,4.40
2019-04-12T14:40:07.069Z,3.60
2019-04-12T14:41:23.625Z,3.70
2019-04-12T14:42:39.745Z,4.20
2019-04-12T14:44:17.826Z,3.80
2019-04-12T14:45:52.484Z,3.37
2019-04-12T14:47:13.385Z,3.20
2019-04-12T14:48:29.528Z,3.50
2019-04-12T14:49:45.828Z,3.77
2019-04-12T14:51:01.616Z,4.03
2019-04-12T14:52:17.606Z,3.93
2019-04-12T14:53:33.901Z,3.73
2019-04-12T14:54:50.115Z,3.93
2019-04-12T14:56:06.243Z,3.73
2019-04-12T14:57:22.001Z,3.73
2019-04-12T14:58:37.788Z,3.10
2019-04-12T14:59:53.953Z,4.17
2019-04-12T15:01:10.474Z,4.13
2019-04-12T15:02:27.833Z,3.70
2019-04-12T15:03:44.304Z,3.63
2019-04-12T15:05:00.660Z,4.10
2019-04-12T15:06:16.878Z,4.20
2019-04-12T15:07:33.133Z,3.73
2019-04-12T15:08:49.586Z,3.80
2019-04-12T15:10:05.423Z,3.10
2019-04-12T15:11:21.423Z,4.30
2019-04-12T15:12:37.381Z,3.73
2019-04-12T15:13:53.266Z,3.77
2019-04-12T15:15:09.262Z,3.17
2019-04-12T15:16:25.130Z,4.07
2019-04-12T15:17:41.113Z,3.40
2019-04-12T15:18:57.299Z,3.60
2019-04-12T15:20:13.426Z,3.40
2019-04-12T15:21:29.332Z,3.37
2019-04-12T15:22:44.967Z,4.40
2019-04-12T15:24:01.070Z,4.13
2019-04-12T15:25:18.078Z,4.23
2019-04-12T15:26:34.201Z,4.60
2019-04-12T15:27:50.380Z,4.40
2019-04-12T15:29:06.504Z,4.73
2019-04-12T15:30:22.211Z,4.60
2019-04-12T15:31:38.226Z,4.77
2019-04-12T15:32:54.699Z,4.47
2019-04-12T15:34:10.594Z,4.47
2019-04-12T15:35:26.353Z,5.30
2019-04-12T15:36:42.002Z,5.33
2019-04-12T15:37:58.172Z,4.53
2019-04-12T15:39:14.380Z,5.77
2019-04-12T15:40:30.523Z,4.97
2019-04-12T15:41:46.519Z,5.40
2019-04-12T15:43:02.733Z,5.50
2019-04-12T15:44:18.626Z,5.50
2019-04-12T15:45:34.549Z,5.30
2019-04-12T15:46:50.348Z,5.17
2019-04-12T15:48:06.425Z,4.80
2019-04-12T15:49:22.452Z,5.37
2019-04-12T15:50:38.378Z,4.90
2019-04-12T15:51:54.597Z,4.63
2019-04-12T15:53:10.777Z,5.00
2019-04-12T15:54:26.707Z,4.70
2019-04-12T15:55:42.658Z,4.57
2019-04-12T15:56:58.732Z,4.00
2019-04-12T15:58:14.751Z,4.60
2019-04-12T15:59:30.723Z,4.03
2019-04-12T16:00:51.080Z,4.80
2019-04-12T16:02:05.263Z,4.87
2019-04-12T16:03:21.168Z,4.93
2019-04-12T16:04:37.330Z,4.23
2019-04-12T16:05:53.661Z,4.00
2019-04-12T16:07:09.992Z,4.30
2019-04-12T16:08:25.825Z,4.40
2019-04-12T16:09:42.008Z,4.33
2019-04-12T16:10:58.134Z,3.70
2019-04-12T16:12:14.192Z,4.07
2019-04-12T16:13:32.641Z,4.70
2019-04-12T16:14:48.523Z,4.00
2019-04-12T16:16:04.757Z,4.47
2019-04-12T16:17:20.914Z,3.90
2019-04-12T16:18:37.125Z,3.97
2019-04-12T16:19:53.491Z,4.07
2019-04-12T16:21:09.459Z,5.03
2019-04-12T16:22:25.442Z,4.10
2019-04-12T16:23:41.638Z,4.30
2019-04-12T16:24:57.524Z,4.43
2019-04-12T16:26:13.490Z,4.73
2019-04-12T16:27:30.968Z,4.27
2019-04-12T16:29:12.296Z,4.13
2019-04-12T16:30:53.354Z,4.07
2019-04-12T16:34:03.075Z,4.23
2019-04-12T16:35:38.454Z,4.60
2019-04-12T16:36:59.548Z,4.17
2019-04-12T16:38:18.703Z,4.40
2019-04-12T16:39:34.523Z,4.43
2019-04-12T16:40:50.723Z,4.47
2019-04-12T16:42:06.719Z,4.13
2019-04-12T16:43:22.850Z,4.00
2019-04-12T16:44:38.888Z,4.13
2019-04-12T16:45:54.995Z,3.53
2019-04-12T16:47:11.076Z,3.90
2019-04-12T16:50:13.970Z,3.67
2019-04-12T16:51:29.868Z,3.77
2019-04-12T16:52:46.136Z,3.20
2019-04-12T16:54:02.054Z,3.63
2019-04-12T16:55:17.981Z,3.90
2019-04-12T16:56:33.908Z,3.77
2019-04-12T16:57:50.038Z,3.70
2019-04-12T16:59:05.932Z,3.27
2019-04-12T17:00:22.164Z,3.27
2019-04-12T17:01:38.210Z,3.60
2019-04-12T17:02:54.503Z,3.70
2019-04-12T17:04:11.077Z,3.33
2019-04-12T17:05:27.467Z,3.83
2019-04-12T17:06:43.267Z,3.97
2019-04-12T17:07:59.155Z,3.37
2019-04-12T17:09:15.207Z,3.80
2019-04-12T17:10:31.531Z,4.30
2019-04-12T17:11:47.261Z,3.07
2019-04-12T17:13:03.557Z,3.03
2019-04-12T17:14:19.833Z,2.90
2019-04-12T17:15:35.773Z,3.07
2019-04-12T17:16:52.075Z,3.40
2019-04-12T17:18:08.248Z,2.77
2019-04-12T17:19:24.695Z,3.20
2019-04-12T17:20:40.671Z,3.50
2019-04-12T17:21:56.623Z,2.47
2019-04-12T17:23:12.690Z,3.03
2019-04-12T17:24:28.833Z,3.13
2019-04-12T17:25:44.883Z,2.97
2019-04-12T17:27:01.249Z,3.07
2019-04-12T17:28:17.265Z,2.87
2019-04-12T17:29:33.203Z,3.07
2019-04-12T17:30:49.634Z,2.90
2019-04-12T17:32:05.200Z,3.50
2019-04-12T17:33:21.369Z,2.73
2019-04-12T17:34:37.859Z,2.43
2019-04-12T17:35:54.446Z,2.87
2019-04-12T17:37:10.994Z,2.97
2019-04-12T17:38:26.936Z,2.57
2019-04-12T17:39:42.716Z,3.43
2019-04-12T17:40:58.772Z,2.90
2019-04-12T17:42:14.546Z,3.20
2019-04-12T17:43:30.442Z,2.80
2019-04-12T17:44:46.254Z,2.93
2019-04-12T17:46:02.587Z,3.50
2019-04-12T17:47:18.447Z,3.53
2019-04-12T17:48:53.303Z,2.83
2019-04-12T17:52:03.856Z,2.90
2019-04-12T17:53:39.271Z,3.80
2019-04-12T17:55:00.101Z,3.50
2019-04-12T17:56:27.114Z,3.67
2019-04-12T17:57:35.787Z,3.60
2019-04-12T17:58:51.598Z,3.73
2019-04-12T18:00:09.212Z,3.53
2019-04-12T18:03:09.722Z,3.90
2019-04-12T18:04:27.407Z,3.80
2019-04-12T18:05:43.948Z,4.37
2019-04-12T18:06:59.863Z,4.13
2019-04-12T18:08:15.982Z,4.00
2019-04-12T18:09:32.113Z,4.37
2019-04-12T18:10:48.072Z,3.83
2019-04-12T18:12:04.132Z,4.30
2019-04-12T18:13:20.264Z,4.00
2019-04-12T18:14:35.992Z,4.30
2019-04-12T18:15:51.950Z,4.00
2019-04-12T18:16:56.546Z,4.13
2019-04-12T18:20:02.675Z,4.23
2019-04-12T18:22:56.357Z,4.53
2019-04-12T18:26:04.188Z,4.00
2019-04-12T18:29:10.680Z,3.87
2019-04-12T18:30:34.208Z,4.30
2019-04-12T18:31:57.836Z,4.80
2019-04-12T18:34:51.212Z,4.17
2019-04-12T18:36:15.224Z,4.27
2019-04-12T18:40:52.321Z,4.70
2019-04-12T18:42:08.390Z,4.57
2019-04-12T18:43:24.414Z,4.03
2019-04-12T18:44:40.637Z,4.50
2019-04-12T18:45:56.677Z,4.43
2019-04-12T18:47:12.949Z,4.90
2019-04-12T18:48:28.947Z,4.13
2019-04-12T18:49:44.897Z,5.03
2019-04-12T18:51:00.926Z,4.63
2019-04-12T18:52:16.607Z,4.73
2019-04-12T18:53:32.828Z,4.47
2019-04-12T18:54:48.801Z,4.23
2019-04-12T18:56:04.747Z,4.80
2019-04-12T18:57:20.690Z,4.70
2019-04-12T18:58:36.351Z,4.87
2019-04-12T18:59:52.256Z,4.43
2019-04-12T19:01:08.708Z,4.43